Архив погоды в Веселой Горке

Метеограмма Веселая Горка
Вторник, 16 Июля
Время местн. Темп Ветер Видим Явления Облачность нижн/средн/верх Атм. давл. Влжн Точка росы ВНГО R Сост. почвы Tg s
Напр Скр Прв ур.ст ур.м изм
10:00 +23.2° В 1 - 50 км - преимущественно облачно 741 758 -0.2 74% +18.3° 1 км - - - -
07:00 +18.5° штиль 0 - более 50 км сплошной поземный туман облачно 741 758 +0.2 96% +17.8° 1 км 0.9 Влажная (без луж) - -
04:00 +17.8° штиль 0 - более 50 км - облачно 741 758 -0.2 96% +17.1° 1 км - - - -
01:00 +18.2° штиль 0 - 50 км - переменная облачность 741 758 -0.2 96% +17.5° 1 км - - - -
Понедельник, 15 Июля
Время местн. Темп Ветер Видим Явления Облачность нижн/средн/верх Атм. давл. Влжн Точка росы ВНГО R Сост. почвы Tg s
Напр Скр Прв ур.ст ур.м изм
22:00 +19.5° штиль 0 - 10 км ливневый дождь облачно 741 758 +0.7 95% +18.6° 1 км - - - -
19:00 +20.6° штиль 0 - более 50 км небо без изменений {ливневые осадки} облачно 740 758 -0.1 91% +19.1° 1 км 2 - - -
16:00 +21.7° З,С-З 1 - 20 км слабый ливневый дождь облачно 740 758 -0.2 86% +19.2° 1 км - - - -
13:00 +24.6° Ю-В 1 - более 50 км - облачно с прояснениями 741 758 -0.8 60% +16.2° 1 км - - - -
10:00 +22.1° В 1 - более 50 км - облачно 741 759 +0.1 70% +16.4° 1 км - - - -
07:00 +16.9° штиль 0 - 20 км - облачно с прояснениями 741 759 +0.3 96% +16.2° более 2.5 км 0 Влажная (без луж) - -
04:00 +15.9° штиль 0 - 20 км - облачно 741 759 +0.2 95% +15.1° 1 км - - - -
01:00 +17.6° штиль 0 - 20 км - облачно 741 758 +0.3 90% +16° 1 км - - - -
Воскресенье, 14 Июля
Время местн. Темп Ветер Видим Явления Облачность нижн/средн/верх Атм. давл. Влжн Точка росы ВНГО R Сост. почвы Tg s
Напр Скр Прв ур.ст ур.м изм
22:00 +19° штиль 0 - 20 км - облачно 741 758 +0.8 83% +16° 1 км - - - -
19:00 +21.9° штиль 0 - 20 км - облачно с прояснениями 740 757 -0.1 69% +16° 1 км 0 - - -
16:00 +24.3° В,Ю-В 1 - 20 км - переменная облачность 740 757 -0.8 54% +14.3° 1 км - - - -
13:00 +21.4° Ю 2 - 50 км - облачно с прояснениями 741 758 -0.4 72% +16.2° 1 км - - - -
10:00 +17.9° штиль 0 - 20 км небо без изменений {ливневые осадки, туман} облачно 741 759 0 86% +15.6° 1 км - - - -
07:00 +15.9° штиль 0 - 10 км слабый ливневый дождь облачно 741 759 +0.5 96% +15.3° 1 км 19 Сырая (есть малые или большие лужи) - -
01:00 +16.6° штиль 0 - 10 км ливневый дождь облачно 740 758 +0.2 94% +15.7° 1 км - - - -
Суббота, 13 Июля
Время местн. Темп Ветер Видим Явления Облачность нижн/средн/верх Атм. давл. Влжн Точка росы ВНГО R Сост. почвы Tg s
Напр Скр Прв ур.ст ур.м изм
22:00 +17.8° штиль 0 - более 50 км - облачно 740 758 +0.7 89% +15.9° 1 км - - - -
19:00 +21.6° штиль 0 - 50 км - облачно 739 757 -0.5 69% +15.7° 1 км 0 - - -
16:00 +20.7° С 1 - 20 км - облачно 740 757 -0.8 70% +15.1° 1 км - - - -
13:00 +17.8° С 1 - 10 км - облачно 741 758 +0.1 80% +14.3° 600 м - - - -
10:00 +15.7° С 1 - 10 км - облачно 741 759 +0.4 88% +13.7° 600 м - - - -
07:00 +14.9° штиль 0 - 20 км сплошной поземный туман облачно 740 758 +0.5 93% +13.8° 1 км 0.7 Влажная (без луж) - -
04:00 +14.4° штиль 0 - 10 км ливневый дождь облачно 740 758 0 94% +13.5° 1 км - - - -